sensor_id;sensor_type;location;lat;lon;timestamp;P1;durP1;ratioP1;P2;durP2;ratioP2
3278;SDS011;1651;50.940;6.888;2022-08-25T00:00:33;6.37;;;3.73;;
3278;SDS011;1651;50.940;6.888;2022-08-25T00:02:59;3.60;;;3.00;;
3278;SDS011;1651;50.940;6.888;2022-08-25T00:05:26;3.73;;;3.40;;
3278;SDS011;1651;50.940;6.888;2022-08-25T00:07:55;3.83;;;3.23;;
3278;SDS011;1651;50.940;6.888;2022-08-25T00:10:21;4.73;;;3.80;;
3278;SDS011;1651;50.940;6.888;2022-08-25T00:12:47;3.63;;;3.23;;
3278;SDS011;1651;50.940;6.888;2022-08-25T00:15:13;4.57;;;4.00;;
3278;SDS011;1651;50.940;6.888;2022-08-25T00:17:39;4.13;;;3.67;;
3278;SDS011;1651;50.940;6.888;2022-08-25T00:20:05;5.60;;;3.30;;
3278;SDS011;1651;50.940;6.888;2022-08-25T00:22:33;4.40;;;3.50;;
3278;SDS011;1651;50.940;6.888;2022-08-25T00:24:59;3.73;;;3.00;;
3278;SDS011;1651;50.940;6.888;2022-08-25T00:27:26;4.33;;;3.93;;
3278;SDS011;1651;50.940;6.888;2022-08-25T00:29:52;3.67;;;3.00;;
3278;SDS011;1651;50.940;6.888;2022-08-25T00:32:20;4.77;;;3.63;;
3278;SDS011;1651;50.940;6.888;2022-08-25T00:34:45;3.60;;;3.30;;
3278;SDS011;1651;50.940;6.888;2022-08-25T00:37:12;4.30;;;3.57;;
3278;SDS011;1651;50.940;6.888;2022-08-25T00:39:40;6.90;;;3.63;;
3278;SDS011;1651;50.940;6.888;2022-08-25T00:42:06;3.77;;;3.37;;
3278;SDS011;1651;50.940;6.888;2022-08-25T00:44:33;4.83;;;3.07;;
3278;SDS011;1651;50.940;6.888;2022-08-25T00:47:01;4.63;;;3.40;;
3278;SDS011;1651;50.940;6.888;2022-08-25T00:49:30;3.70;;;3.17;;
3278;SDS011;1651;50.940;6.888;2022-08-25T00:57:11;4.33;;;3.23;;
3278;SDS011;1651;50.940;6.888;2022-08-25T00:59:39;4.07;;;3.50;;
3278;SDS011;1651;50.940;6.888;2022-08-25T01:02:07;4.10;;;3.80;;
3278;SDS011;1651;50.940;6.888;2022-08-25T01:04:36;3.60;;;3.30;;
3278;SDS011;1651;50.940;6.888;2022-08-25T01:07:02;6.40;;;3.77;;
3278;SDS011;1651;50.940;6.888;2022-08-25T01:09:29;5.13;;;4.03;;
3278;SDS011;1651;50.940;6.888;2022-08-25T01:11:56;4.90;;;3.57;;
3278;SDS011;1651;50.940;6.888;2022-08-25T01:14:22;3.63;;;3.27;;
3278;SDS011;1651;50.940;6.888;2022-08-25T01:16:49;4.83;;;2.93;;
3278;SDS011;1651;50.940;6.888;2022-08-25T01:19:15;5.80;;;3.50;;
3278;SDS011;1651;50.940;6.888;2022-08-25T01:21:43;4.40;;;3.10;;
3278;SDS011;1651;50.940;6.888;2022-08-25T01:24:11;3.93;;;3.53;;
3278;SDS011;1651;50.940;6.888;2022-08-25T01:26:38;3.40;;;3.10;;
3278;SDS011;1651;50.940;6.888;2022-08-25T01:29:06;2.87;;;2.50;;
3278;SDS011;1651;50.940;6.888;2022-08-25T01:31:51;3.83;;;2.90;;
3278;SDS011;1651;50.940;6.888;2022-08-25T01:34:18;2.90;;;2.57;;
3278;SDS011;1651;50.940;6.888;2022-08-25T01:36:45;3.60;;;3.30;;
3278;SDS011;1651;50.940;6.888;2022-08-25T01:39:13;3.43;;;3.13;;
3278;SDS011;1651;50.940;6.888;2022-08-25T01:44:25;4.20;;;3.60;;
3278;SDS011;1651;50.940;6.888;2022-08-25T01:49:24;5.03;;;2.80;;
3278;SDS011;1651;50.940;6.888;2022-08-25T01:51:52;6.27;;;3.50;;
3278;SDS011;1651;50.940;6.888;2022-08-25T01:54:20;7.90;;;4.20;;
3278;SDS011;1651;50.940;6.888;2022-08-25T01:56:49;3.70;;;3.40;;
3278;SDS011;1651;50.940;6.888;2022-08-25T01:59:16;3.93;;;3.60;;
3278;SDS011;1651;50.940;6.888;2022-08-25T02:01:42;3.60;;;3.30;;
3278;SDS011;1651;50.940;6.888;2022-08-25T02:04:08;3.33;;;3.03;;
3278;SDS011;1651;50.940;6.888;2022-08-25T02:06:34;4.13;;;3.83;;
3278;SDS011;1651;50.940;6.888;2022-08-25T02:09:04;4.07;;;3.70;;
3278;SDS011;1651;50.940;6.888;2022-08-25T02:11:30;3.80;;;3.50;;
3278;SDS011;1651;50.940;6.888;2022-08-25T02:13:57;4.37;;;3.97;;
3278;SDS011;1651;50.940;6.888;2022-08-25T02:16:25;3.90;;;3.50;;
3278;SDS011;1651;50.940;6.888;2022-08-25T02:18:53;4.60;;;3.23;;
3278;SDS011;1651;50.940;6.888;2022-08-25T02:21:20;3.43;;;3.10;;
3278;SDS011;1651;50.940;6.888;2022-08-25T02:23:46;5.90;;;4.07;;
3278;SDS011;1651;50.940;6.888;2022-08-25T02:26:12;5.10;;;3.43;;
3278;SDS011;1651;50.940;6.888;2022-08-25T02:28:41;3.87;;;3.57;;
3278;SDS011;1651;50.940;6.888;2022-08-25T02:31:07;4.23;;;3.83;;
3278;SDS011;1651;50.940;6.888;2022-08-25T02:33:33;3.90;;;3.60;;
3278;SDS011;1651;50.940;6.888;2022-08-25T02:35:59;5.57;;;5.07;;
3278;SDS011;1651;50.940;6.888;2022-08-25T02:38:27;5.23;;;3.37;;
3278;SDS011;1651;50.940;6.888;2022-08-25T02:40:57;4.20;;;3.80;;
3278;SDS011;1651;50.940;6.888;2022-08-25T02:43:24;4.20;;;3.47;;
3278;SDS011;1651;50.940;6.888;2022-08-25T02:45:51;4.40;;;3.60;;
3278;SDS011;1651;50.940;6.888;2022-08-25T02:48:17;4.57;;;4.13;;
3278;SDS011;1651;50.940;6.888;2022-08-25T02:50:47;5.23;;;4.27;;
3278;SDS011;1651;50.940;6.888;2022-08-25T02:53:14;4.30;;;3.50;;
3278;SDS011;1651;50.940;6.888;2022-08-25T02:55:40;3.47;;;3.23;;
3278;SDS011;1651;50.940;6.888;2022-08-25T02:58:06;4.23;;;3.53;;
3278;SDS011;1651;50.940;6.888;2022-08-25T03:00:34;3.70;;;3.40;;
3278;SDS011;1651;50.940;6.888;2022-08-25T03:03:00;5.63;;;3.60;;
3278;SDS011;1651;50.940;6.888;2022-08-25T03:05:26;3.50;;;3.30;;
3278;SDS011;1651;50.940;6.888;2022-08-25T03:07:52;5.97;;;5.43;;
3278;SDS011;1651;50.940;6.888;2022-08-25T03:10:18;6.37;;;4.07;;
3278;SDS011;1651;50.940;6.888;2022-08-25T03:12:45;5.60;;;3.60;;
3278;SDS011;1651;50.940;6.888;2022-08-25T03:15:15;4.47;;;4.07;;
3278;SDS011;1651;50.940;6.888;2022-08-25T03:17:45;6.53;;;4.33;;
3278;SDS011;1651;50.940;6.888;2022-08-25T03:20:13;4.03;;;3.67;;
3278;SDS011;1651;50.940;6.888;2022-08-25T03:22:40;5.27;;;4.27;;
3278;SDS011;1651;50.940;6.888;2022-08-25T03:25:06;7.60;;;4.10;;
3278;SDS011;1651;50.940;6.888;2022-08-25T03:27:51;3.70;;;3.40;;
3278;SDS011;1651;50.940;6.888;2022-08-25T03:30:17;4.00;;;3.70;;
3278;SDS011;1651;50.940;6.888;2022-08-25T03:32:44;4.53;;;4.13;;
3278;SDS011;1651;50.940;6.888;2022-08-25T03:35:10;6.17;;;4.10;;
3278;SDS011;1651;50.940;6.888;2022-08-25T03:37:36;5.47;;;3.70;;
3278;SDS011;1651;50.940;6.888;2022-08-25T03:40:03;4.53;;;3.37;;
3278;SDS011;1651;50.940;6.888;2022-08-25T03:42:30;3.83;;;3.53;;
3278;SDS011;1651;50.940;6.888;2022-08-25T03:44:56;4.30;;;3.90;;
3278;SDS011;1651;50.940;6.888;2022-08-25T03:47:24;4.47;;;4.00;;
3278;SDS011;1651;50.940;6.888;2022-08-25T03:49:50;7.97;;;3.90;;
3278;SDS011;1651;50.940;6.888;2022-08-25T03:52:17;5.23;;;3.57;;
3278;SDS011;1651;50.940;6.888;2022-08-25T03:54:44;4.80;;;3.30;;
3278;SDS011;1651;50.940;6.888;2022-08-25T03:57:12;4.00;;;3.43;;
3278;SDS011;1651;50.940;6.888;2022-08-25T03:59:39;3.90;;;3.53;;
3278;SDS011;1651;50.940;6.888;2022-08-25T04:02:07;5.00;;;3.87;;
3278;SDS011;1651;50.940;6.888;2022-08-25T04:04:33;3.57;;;3.27;;
3278;SDS011;1651;50.940;6.888;2022-08-25T04:07:00;3.80;;;3.20;;
3278;SDS011;1651;50.940;6.888;2022-08-25T04:09:26;4.23;;;3.83;;
3278;SDS011;1651;50.940;6.888;2022-08-25T04:11:52;3.97;;;3.00;;
3278;SDS011;1651;50.940;6.888;2022-08-25T04:14:19;5.33;;;4.03;;
3278;SDS011;1651;50.940;6.888;2022-08-25T04:16:45;8.07;;;3.90;;
3278;SDS011;1651;50.940;6.888;2022-08-25T04:19:11;4.10;;;3.70;;
3278;SDS011;1651;50.940;6.888;2022-08-25T04:21:38;3.30;;;3.00;;
3278;SDS011;1651;50.940;6.888;2022-08-25T04:24:05;3.87;;;3.50;;
3278;SDS011;1651;50.940;6.888;2022-08-25T04:26:33;4.30;;;3.73;;
3278;SDS011;1651;50.940;6.888;2022-08-25T04:29:00;4.40;;;3.83;;
3278;SDS011;1651;50.940;6.888;2022-08-25T04:31:27;5.40;;;3.80;;
3278;SDS011;1651;50.940;6.888;2022-08-25T04:33:54;5.03;;;4.17;;
3278;SDS011;1651;50.940;6.888;2022-08-25T04:36:20;5.93;;;3.90;;
3278;SDS011;1651;50.940;6.888;2022-08-25T04:38:48;4.50;;;3.83;;
3278;SDS011;1651;50.940;6.888;2022-08-25T04:41:16;4.10;;;3.80;;
3278;SDS011;1651;50.940;6.888;2022-08-25T04:43:43;4.10;;;3.70;;
3278;SDS011;1651;50.940;6.888;2022-08-25T04:46:17;5.53;;;3.40;;
3278;SDS011;1651;50.940;6.888;2022-08-25T04:48:43;6.03;;;3.47;;
3278;SDS011;1651;50.940;6.888;2022-08-25T04:51:14;5.00;;;3.50;;
3278;SDS011;1651;50.940;6.888;2022-08-25T04:53:40;7.63;;;3.30;;
3278;SDS011;1651;50.940;6.888;2022-08-25T04:56:08;3.83;;;3.50;;
3278;SDS011;1651;50.940;6.888;2022-08-25T04:58:34;7.20;;;4.10;;
3278;SDS011;1651;50.940;6.888;2022-08-25T05:01:08;5.33;;;3.60;;
3278;SDS011;1651;50.940;6.888;2022-08-25T05:03:34;5.50;;;4.30;;
3278;SDS011;1651;50.940;6.888;2022-08-25T05:06:00;4.33;;;3.80;;
3278;SDS011;1651;50.940;6.888;2022-08-25T05:08:29;33.90;;;5.23;;
3278;SDS011;1651;50.940;6.888;2022-08-25T05:10:56;5.53;;;4.10;;
3278;SDS011;1651;50.940;6.888;2022-08-25T05:13:22;8.40;;;4.00;;
3278;SDS011;1651;50.940;6.888;2022-08-25T05:15:56;4.90;;;4.10;;
3278;SDS011;1651;50.940;6.888;2022-08-25T05:18:23;7.33;;;4.33;;
3278;SDS011;1651;50.940;6.888;2022-08-25T05:20:50;4.30;;;3.93;;
3278;SDS011;1651;50.940;6.888;2022-08-25T05:23:18;6.50;;;4.27;;
3278;SDS011;1651;50.940;6.888;2022-08-25T05:25:44;5.57;;;3.97;;
3278;SDS011;1651;50.940;6.888;2022-08-25T05:28:10;5.17;;;4.43;;
3278;SDS011;1651;50.940;6.888;2022-08-25T05:30:37;7.17;;;4.07;;
3278;SDS011;1651;50.940;6.888;2022-08-25T05:33:04;4.70;;;4.17;;
3278;SDS011;1651;50.940;6.888;2022-08-25T05:35:30;6.17;;;4.10;;
3278;SDS011;1651;50.940;6.888;2022-08-25T05:37:56;9.20;;;4.60;;
3278;SDS011;1651;50.940;6.888;2022-08-25T05:40:23;4.63;;;4.23;;
3278;SDS011;1651;50.940;6.888;2022-08-25T05:42:50;5.67;;;4.43;;
3278;SDS011;1651;50.940;6.888;2022-08-25T05:45:18;11.23;;;4.43;;
3278;SDS011;1651;50.940;6.888;2022-08-25T05:47:44;5.53;;;4.00;;
3278;SDS011;1651;50.940;6.888;2022-08-25T05:50:11;6.00;;;4.03;;
3278;SDS011;1651;50.940;6.888;2022-08-25T05:52:37;6.10;;;4.20;;
3278;SDS011;1651;50.940;6.888;2022-08-25T05:55:04;6.30;;;4.27;;
3278;SDS011;1651;50.940;6.888;2022-08-25T05:57:31;6.03;;;4.63;;
3278;SDS011;1651;50.940;6.888;2022-08-25T05:59:57;5.90;;;3.83;;
3278;SDS011;1651;50.940;6.888;2022-08-25T06:02:23;4.33;;;3.93;;
3278;SDS011;1651;50.940;6.888;2022-08-25T06:05:11;5.80;;;3.37;;
3278;SDS011;1651;50.940;6.888;2022-08-25T06:07:37;4.90;;;3.97;;
3278;SDS011;1651;50.940;6.888;2022-08-25T06:10:04;5.67;;;4.40;;
3278;SDS011;1651;50.940;6.888;2022-08-25T06:12:31;4.40;;;3.70;;
3278;SDS011;1651;50.940;6.888;2022-08-25T06:15:02;4.73;;;3.60;;
3278;SDS011;1651;50.940;6.888;2022-08-25T06:17:28;4.27;;;3.87;;
3278;SDS011;1651;50.940;6.888;2022-08-25T06:19:54;5.00;;;3.87;;
3278;SDS011;1651;50.940;6.888;2022-08-25T06:22:20;4.33;;;3.43;;
3278;SDS011;1651;50.940;6.888;2022-08-25T06:24:47;7.77;;;5.17;;
3278;SDS011;1651;50.940;6.888;2022-08-25T06:27:13;4.27;;;3.13;;
3278;SDS011;1651;50.940;6.888;2022-08-25T06:29:39;4.70;;;3.17;;
3278;SDS011;1651;50.940;6.888;2022-08-25T06:32:05;6.10;;;4.00;;
3278;SDS011;1651;50.940;6.888;2022-08-25T06:34:31;6.50;;;4.33;;
3278;SDS011;1651;50.940;6.888;2022-08-25T06:36:58;4.77;;;4.37;;
3278;SDS011;1651;50.940;6.888;2022-08-25T06:39:24;6.17;;;3.60;;
3278;SDS011;1651;50.940;6.888;2022-08-25T06:41:51;5.03;;;4.10;;
3278;SDS011;1651;50.940;6.888;2022-08-25T06:44:18;5.10;;;4.60;;
3278;SDS011;1651;50.940;6.888;2022-08-25T06:46:45;4.47;;;3.80;;
3278;SDS011;1651;50.940;6.888;2022-08-25T06:49:11;5.50;;;4.23;;
3278;SDS011;1651;50.940;6.888;2022-08-25T06:51:37;6.33;;;4.10;;
3278;SDS011;1651;50.940;6.888;2022-08-25T06:54:05;3.87;;;3.30;;
3278;SDS011;1651;50.940;6.888;2022-08-25T06:56:32;4.83;;;3.30;;
3278;SDS011;1651;50.940;6.888;2022-08-25T06:59:03;3.33;;;3.03;;
3278;SDS011;1651;50.940;6.888;2022-08-25T07:01:31;6.83;;;3.20;;
3278;SDS011;1651;50.940;6.888;2022-08-25T07:03:58;5.37;;;3.60;;
3278;SDS011;1651;50.940;6.888;2022-08-25T07:06:25;6.93;;;4.50;;
3278;SDS011;1651;50.940;6.888;2022-08-25T07:08:51;4.83;;;3.97;;
3278;SDS011;1651;50.940;6.888;2022-08-25T07:11:18;6.47;;;3.90;;
3278;SDS011;1651;50.940;6.888;2022-08-25T07:13:47;6.63;;;3.33;;
3278;SDS011;1651;50.940;6.888;2022-08-25T07:16:14;5.33;;;3.17;;
3278;SDS011;1651;50.940;6.888;2022-08-25T07:18:41;6.43;;;3.70;;
3278;SDS011;1651;50.940;6.888;2022-08-25T07:21:07;4.67;;;2.90;;
3278;SDS011;1651;50.940;6.888;2022-08-25T07:23:33;5.20;;;3.10;;
3278;SDS011;1651;50.940;6.888;2022-08-25T07:26:13;5.30;;;3.43;;
3278;SDS011;1651;50.940;6.888;2022-08-25T07:28:39;5.23;;;3.40;;
3278;SDS011;1651;50.940;6.888;2022-08-25T07:31:06;4.67;;;3.07;;
3278;SDS011;1651;50.940;6.888;2022-08-25T07:33:32;4.50;;;3.07;;
3278;SDS011;1651;50.940;6.888;2022-08-25T07:35:58;4.30;;;3.30;;
3278;SDS011;1651;50.940;6.888;2022-08-25T07:38:24;4.80;;;3.50;;
3278;SDS011;1651;50.940;6.888;2022-08-25T07:40:50;9.40;;;3.63;;
3278;SDS011;1651;50.940;6.888;2022-08-25T07:43:20;4.23;;;3.80;;
3278;SDS011;1651;50.940;6.888;2022-08-25T07:45:46;6.30;;;4.20;;
3278;SDS011;1651;50.940;6.888;2022-08-25T07:48:13;7.77;;;3.10;;
3278;SDS011;1651;50.940;6.888;2022-08-25T07:50:42;3.90;;;3.10;;
3278;SDS011;1651;50.940;6.888;2022-08-25T07:53:14;3.93;;;2.97;;
3278;SDS011;1651;50.940;6.888;2022-08-25T07:55:41;4.90;;;3.60;;
3278;SDS011;1651;50.940;6.888;2022-08-25T07:58:08;4.20;;;3.77;;
3278;SDS011;1651;50.940;6.888;2022-08-25T08:00:34;3.90;;;3.60;;
3278;SDS011;1651;50.940;6.888;2022-08-25T08:03:02;3.60;;;3.30;;
3278;SDS011;1651;50.940;6.888;2022-08-25T08:05:28;4.67;;;3.60;;
3278;SDS011;1651;50.940;6.888;2022-08-25T08:07:54;4.90;;;3.90;;
3278;SDS011;1651;50.940;6.888;2022-08-25T08:10:21;6.63;;;3.83;;
3278;SDS011;1651;50.940;6.888;2022-08-25T08:12:49;5.90;;;3.00;;
3278;SDS011;1651;50.940;6.888;2022-08-25T08:15:15;5.77;;;3.50;;
3278;SDS011;1651;50.940;6.888;2022-08-25T08:17:41;3.50;;;3.20;;
3278;SDS011;1651;50.940;6.888;2022-08-25T08:20:08;4.43;;;3.30;;
3278;SDS011;1651;50.940;6.888;2022-08-25T08:22:35;4.43;;;3.50;;
3278;SDS011;1651;50.940;6.888;2022-08-25T08:25:02;4.10;;;3.00;;
3278;SDS011;1651;50.940;6.888;2022-08-25T08:27:28;3.40;;;3.10;;
3278;SDS011;1651;50.940;6.888;2022-08-25T08:29:54;4.20;;;3.13;;
3278;SDS011;1651;50.940;6.888;2022-08-25T08:32:21;4.63;;;3.30;;
3278;SDS011;1651;50.940;6.888;2022-08-25T08:34:48;3.43;;;3.13;;
3278;SDS011;1651;50.940;6.888;2022-08-25T08:37:14;3.87;;;3.40;;
3278;SDS011;1651;50.940;6.888;2022-08-25T08:39:41;3.40;;;3.10;;
3278;SDS011;1651;50.940;6.888;2022-08-25T08:52:44;3.37;;;3.13;;
3278;SDS011;1651;50.940;6.888;2022-08-25T08:55:22;3.27;;;2.97;;
3278;SDS011;1651;50.940;6.888;2022-08-25T08:57:51;2.90;;;2.70;;
3278;SDS011;1651;50.940;6.888;2022-08-25T09:00:21;6.43;;;3.30;;
3278;SDS011;1651;50.940;6.888;2022-08-25T09:02:49;3.40;;;2.77;;
3278;SDS011;1651;50.940;6.888;2022-08-25T09:05:17;3.10;;;2.87;;
3278;SDS011;1651;50.940;6.888;2022-08-25T09:10:11;3.00;;;2.80;;
3278;SDS011;1651;50.940;6.888;2022-08-25T09:28:01;3.30;;;2.83;;
3278;SDS011;1651;50.940;6.888;2022-08-25T09:30:32;3.43;;;2.53;;
3278;SDS011;1651;50.940;6.888;2022-08-25T09:35:30;2.70;;;2.50;;
3278;SDS011;1651;50.940;6.888;2022-08-25T09:38:09;2.67;;;2.47;;
3278;SDS011;1651;50.940;6.888;2022-08-25T09:40:38;3.60;;;2.47;;
3278;SDS011;1651;50.940;6.888;2022-08-25T09:43:52;5.27;;;2.60;;
3278;SDS011;1651;50.940;6.888;2022-08-25T09:45:59;3.23;;;2.93;;
3278;SDS011;1651;50.940;6.888;2022-08-25T09:48:30;3.30;;;2.53;;
3278;SDS011;1651;50.940;6.888;2022-08-25T09:51:25;2.60;;;2.37;;
3278;SDS011;1651;50.940;6.888;2022-08-25T09:56:14;7.77;;;3.20;;
3278;SDS011;1651;50.940;6.888;2022-08-25T09:58:45;3.07;;;2.50;;
3278;SDS011;1651;50.940;6.888;2022-08-25T10:01:13;5.77;;;2.60;;
3278;SDS011;1651;50.940;6.888;2022-08-25T10:04:00;3.50;;;2.70;;
3278;SDS011;1651;50.940;6.888;2022-08-25T10:06:28;4.37;;;3.37;;
3278;SDS011;1651;50.940;6.888;2022-08-25T10:09:03;2.70;;;2.50;;
3278;SDS011;1651;50.940;6.888;2022-08-25T10:11:35;3.60;;;3.30;;
3278;SDS011;1651;50.940;6.888;2022-08-25T10:14:16;4.43;;;3.10;;
3278;SDS011;1651;50.940;6.888;2022-08-25T10:16:42;8.80;;;3.00;;
3278;SDS011;1651;50.940;6.888;2022-08-25T10:19:27;3.63;;;3.33;;
3278;SDS011;1651;50.940;6.888;2022-08-25T10:24:28;6.70;;;3.07;;
3278;SDS011;1651;50.940;6.888;2022-08-25T10:33:12;3.73;;;3.33;;
3278;SDS011;1651;50.940;6.888;2022-08-25T10:41:15;4.23;;;3.00;;
3278;SDS011;1651;50.940;6.888;2022-08-25T10:57:06;3.60;;;3.20;;
3278;SDS011;1651;50.940;6.888;2022-08-25T11:07:38;3.53;;;3.20;;
3278;SDS011;1651;50.940;6.888;2022-08-25T11:12:40;3.93;;;3.00;;
3278;SDS011;1651;50.940;6.888;2022-08-25T11:20:10;5.47;;;3.27;;
3278;SDS011;1651;50.940;6.888;2022-08-25T11:22:41;4.23;;;3.43;;
3278;SDS011;1651;50.940;6.888;2022-08-25T11:30:19;4.00;;;3.60;;
3278;SDS011;1651;50.940;6.888;2022-08-25T11:32:47;3.73;;;3.00;;
3278;SDS011;1651;50.940;6.888;2022-08-25T11:35:15;5.00;;;3.40;;
3278;SDS011;1651;50.940;6.888;2022-08-25T11:37:44;3.93;;;3.53;;
3278;SDS011;1651;50.940;6.888;2022-08-25T11:40:21;5.67;;;3.70;;
3278;SDS011;1651;50.940;6.888;2022-08-25T11:43:12;3.50;;;3.20;;
3278;SDS011;1651;50.940;6.888;2022-08-25T11:57:16;4.83;;;3.50;;
3278;SDS011;1651;50.940;6.888;2022-08-25T12:48:38;3.97;;;3.57;;
3278;SDS011;1651;50.940;6.888;2022-08-25T12:50:58;3.27;;;3.00;;
3278;SDS011;1651;50.940;6.888;2022-08-25T12:56:34;5.10;;;4.33;;
3278;SDS011;1651;50.940;6.888;2022-08-25T12:59:10;4.30;;;3.90;;
3278;SDS011;1651;50.940;6.888;2022-08-25T13:22:30;3.63;;;3.30;;
3278;SDS011;1651;50.940;6.888;2022-08-25T13:24:56;3.80;;;3.50;;
3278;SDS011;1651;50.940;6.888;2022-08-25T13:27:33;4.10;;;3.07;;
3278;SDS011;1651;50.940;6.888;2022-08-25T13:30:04;7.80;;;3.23;;
3278;SDS011;1651;50.940;6.888;2022-08-25T13:32:32;4.40;;;3.03;;
3278;SDS011;1651;50.940;6.888;2022-08-25T13:37:51;3.93;;;3.40;;
3278;SDS011;1651;50.940;6.888;2022-08-25T13:42:48;5.23;;;2.83;;
3278;SDS011;1651;50.940;6.888;2022-08-25T13:45:19;2.97;;;2.77;;
3278;SDS011;1651;50.940;6.888;2022-08-25T13:47:47;3.30;;;3.00;;
3278;SDS011;1651;50.940;6.888;2022-08-25T13:58:17;4.30;;;3.60;;
3278;SDS011;1651;50.940;6.888;2022-08-25T14:07:06;3.30;;;3.00;;
3278;SDS011;1651;50.940;6.888;2022-08-25T14:12:40;2.97;;;2.53;;
3278;SDS011;1651;50.940;6.888;2022-08-25T14:20:49;3.27;;;2.83;;
3278;SDS011;1651;50.940;6.888;2022-08-25T14:25:52;3.97;;;3.57;;
3278;SDS011;1651;50.940;6.888;2022-08-25T14:28:25;6.17;;;3.00;;
3278;SDS011;1651;50.940;6.888;2022-08-25T14:31:32;2.87;;;2.40;;
3278;SDS011;1651;50.940;6.888;2022-08-25T14:36:51;3.60;;;2.40;;
3278;SDS011;1651;50.940;6.888;2022-08-25T17:02:24;3.17;;;2.60;;
3278;SDS011;1651;50.940;6.888;2022-08-25T17:04:50;6.70;;;3.50;;
3278;SDS011;1651;50.940;6.888;2022-08-25T17:10:20;4.33;;;2.93;;
3278;SDS011;1651;50.940;6.888;2022-08-25T20:38:21;6.60;;;4.00;;
3278;SDS011;1651;50.940;6.888;2022-08-25T20:40:50;9.33;;;4.33;;
3278;SDS011;1651;50.940;6.888;2022-08-25T20:43:18;7.47;;;4.10;;
3278;SDS011;1651;50.940;6.888;2022-08-25T20:45:44;5.23;;;4.40;;
3278;SDS011;1651;50.940;6.888;2022-08-25T20:51:32;4.90;;;3.53;;
3278;SDS011;1651;50.940;6.888;2022-08-25T20:56:58;6.00;;;4.30;;
3278;SDS011;1651;50.940;6.888;2022-08-25T21:02:23;6.17;;;4.37;;
3278;SDS011;1651;50.940;6.888;2022-08-25T21:10:51;5.40;;;4.47;;
3278;SDS011;1651;50.940;6.888;2022-08-25T22:27:04;10.23;;;4.60;;
3278;SDS011;1651;50.940;6.888;2022-08-25T22:29:30;6.13;;;5.53;;
3278;SDS011;1651;50.940;6.888;2022-08-25T22:31:56;5.60;;;5.10;;
3278;SDS011;1651;50.940;6.888;2022-08-25T22:34:22;6.00;;;5.17;;
3278;SDS011;1651;50.940;6.888;2022-08-25T22:36:49;7.60;;;5.30;;
3278;SDS011;1651;50.940;6.888;2022-08-25T22:39:15;7.67;;;4.87;;
3278;SDS011;1651;50.940;6.888;2022-08-25T22:41:41;10.40;;;5.27;;
3278;SDS011;1651;50.940;6.888;2022-08-25T22:44:09;6.50;;;4.70;;
3278;SDS011;1651;50.940;6.888;2022-08-25T22:46:35;6.47;;;4.67;;
3278;SDS011;1651;50.940;6.888;2022-08-25T22:49:01;7.93;;;4.50;;
3278;SDS011;1651;50.940;6.888;2022-08-25T22:51:28;6.50;;;5.20;;
3278;SDS011;1651;50.940;6.888;2022-08-25T22:53:56;6.87;;;4.97;;
3278;SDS011;1651;50.940;6.888;2022-08-25T22:56:26;5.10;;;4.40;;
3278;SDS011;1651;50.940;6.888;2022-08-25T22:58:56;9.33;;;4.90;;
3278;SDS011;1651;50.940;6.888;2022-08-25T23:01:23;6.90;;;5.60;;
3278;SDS011;1651;50.940;6.888;2022-08-25T23:03:50;7.30;;;5.13;;
3278;SDS011;1651;50.940;6.888;2022-08-25T23:06:17;7.43;;;5.70;;
3278;SDS011;1651;50.940;6.888;2022-08-25T23:08:44;6.00;;;5.40;;
3278;SDS011;1651;50.940;6.888;2022-08-25T23:11:11;7.97;;;5.23;;
3278;SDS011;1651;50.940;6.888;2022-08-25T23:13:38;5.73;;;5.00;;
3278;SDS011;1651;50.940;6.888;2022-08-25T23:16:06;8.50;;;5.87;;
3278;SDS011;1651;50.940;6.888;2022-08-25T23:18:36;8.57;;;5.80;;
3278;SDS011;1651;50.940;6.888;2022-08-25T23:21:02;6.93;;;5.40;;
3278;SDS011;1651;50.940;6.888;2022-08-25T23:23:49;7.10;;;6.40;;
3278;SDS011;1651;50.940;6.888;2022-08-25T23:26:15;7.47;;;5.63;;
3278;SDS011;1651;50.940;6.888;2022-08-25T23:28:42;5.83;;;5.33;;
3278;SDS011;1651;50.940;6.888;2022-08-25T23:31:09;11.20;;;5.80;;
3278;SDS011;1651;50.940;6.888;2022-08-25T23:33:36;8.20;;;5.60;;
3278;SDS011;1651;50.940;6.888;2022-08-25T23:36:03;6.47;;;5.77;;
3278;SDS011;1651;50.940;6.888;2022-08-25T23:38:29;10.33;;;5.90;;
3278;SDS011;1651;50.940;6.888;2022-08-25T23:40:56;6.30;;;4.80;;
3278;SDS011;1651;50.940;6.888;2022-08-25T23:43:23;7.30;;;5.87;;
3278;SDS011;1651;50.940;6.888;2022-08-25T23:45:49;6.10;;;5.60;;
3278;SDS011;1651;50.940;6.888;2022-08-25T23:48:21;8.43;;;5.07;;
3278;SDS011;1651;50.940;6.888;2022-08-25T23:50:49;6.40;;;5.37;;
3278;SDS011;1651;50.940;6.888;2022-08-25T23:53:15;10.47;;;5.00;;
3278;SDS011;1651;50.940;6.888;2022-08-25T23:55:47;7.57;;;5.10;;
3278;SDS011;1651;50.940;6.888;2022-08-25T23:58:14;8.70;;;5.73;;
